sensor_id;sensor_type;location;lat;lon;timestamp;pressure;altitude;pressure_sealevel;temperature
65290;BMP180;51893;59.754;10.110;2024-03-08T00:00:19;103087.60;;;-0.30
65290;BMP180;51893;59.754;10.110;2024-03-08T00:03:08;103084.60;;;-0.40
65290;BMP180;51893;59.754;10.110;2024-03-08T00:05:38;103091.20;;;-0.50
65290;BMP180;51893;59.754;10.110;2024-03-08T00:08:06;103090.00;;;-0.60
65290;BMP180;51893;59.754;10.110;2024-03-08T00:10:38;103094.20;;;-0.62
65290;BMP180;51893;59.754;10.110;2024-03-08T00:13:07;103093.00;;;-0.66
65290;BMP180;51893;59.754;10.110;2024-03-08T00:15:35;103097.20;;;-0.70
65290;BMP180;51893;59.754;10.110;2024-03-08T00:18:03;103093.40;;;-0.70
65290;BMP180;51893;59.754;10.110;2024-03-08T00:20:31;103089.80;;;-0.70
65290;BMP180;51893;59.754;10.110;2024-03-08T00:22:59;103091.60;;;-0.70
65290;BMP180;51893;59.754;10.110;2024-03-08T00:25:27;103090.60;;;-0.62
65290;BMP180;51893;59.754;10.110;2024-03-08T00:27:55;103091.40;;;-0.70
65290;BMP180;51893;59.754;10.110;2024-03-08T00:30:24;103093.80;;;-0.60
65290;BMP180;51893;59.754;10.110;2024-03-08T00:32:53;103089.40;;;-0.60
65290;BMP180;51893;59.754;10.110;2024-03-08T00:35:21;103081.20;;;-0.60
65290;BMP180;51893;59.754;10.110;2024-03-08T00:37:50;103081.00;;;-0.60
65290;BMP180;51893;59.754;10.110;2024-03-08T00:40:18;103081.80;;;-0.58
65290;BMP180;51893;59.754;10.110;2024-03-08T00:42:46;103082.20;;;-0.52
65290;BMP180;51893;59.754;10.110;2024-03-08T00:45:14;103080.40;;;-0.60
65290;BMP180;51893;59.754;10.110;2024-03-08T00:47:44;103080.60;;;-0.60
65290;BMP180;51893;59.754;10.110;2024-03-08T00:50:12;103078.80;;;-0.60
65290;BMP180;51893;59.754;10.110;2024-03-08T00:52:40;103077.40;;;-0.60
65290;BMP180;51893;59.754;10.110;2024-03-08T00:55:09;103077.80;;;-0.60
65290;BMP180;51893;59.754;10.110;2024-03-08T00:57:39;103080.40;;;-0.70
65290;BMP180;51893;59.754;10.110;2024-03-08T01:00:08;103075.40;;;-0.70
65290;BMP180;51893;59.754;10.110;2024-03-08T01:02:40;103076.40;;;-0.60
65290;BMP180;51893;59.754;10.110;2024-03-08T01:05:09;103071.20;;;-0.60
65290;BMP180;51893;59.754;10.110;2024-03-08T01:07:37;103067.60;;;-0.60
65290;BMP180;51893;59.754;10.110;2024-03-08T01:10:06;103070.00;;;-0.60
65290;BMP180;51893;59.754;10.110;2024-03-08T01:12:38;103062.80;;;-0.54
65290;BMP180;51893;59.754;10.110;2024-03-08T01:15:09;103057.40;;;-0.60
65290;BMP180;51893;59.754;10.110;2024-03-08T01:17:38;103061.60;;;-0.60
65290;BMP180;51893;59.754;10.110;2024-03-08T01:20:07;103067.00;;;-0.60
65290;BMP180;51893;59.754;10.110;2024-03-08T01:22:40;103064.80;;;-0.70
65290;BMP180;51893;59.754;10.110;2024-03-08T01:25:08;103063.60;;;-0.80
65290;BMP180;51893;59.754;10.110;2024-03-08T01:27:36;103068.80;;;-0.82
65290;BMP180;51893;59.754;10.110;2024-03-08T01:30:05;103062.20;;;-0.90
65290;BMP180;51893;59.754;10.110;2024-03-08T01:32:34;103060.60;;;-1.00
65290;BMP180;51893;59.754;10.110;2024-03-08T01:35:02;103060.40;;;-1.10
65290;BMP180;51893;59.754;10.110;2024-03-08T01:37:31;103057.20;;;-1.10
65290;BMP180;51893;59.754;10.110;2024-03-08T01:39:59;103056.00;;;-1.20
65290;BMP180;51893;59.754;10.110;2024-03-08T01:42:27;103055.40;;;-1.30
65290;BMP180;51893;59.754;10.110;2024-03-08T01:44:56;103055.20;;;-1.30
65290;BMP180;51893;59.754;10.110;2024-03-08T01:47:25;103050.00;;;-1.30
65290;BMP180;51893;59.754;10.110;2024-03-08T01:49:53;103045.20;;;-1.30
65290;BMP180;51893;59.754;10.110;2024-03-08T01:52:22;103041.40;;;-1.26
65290;BMP180;51893;59.754;10.110;2024-03-08T01:54:52;103043.60;;;-1.22
65290;BMP180;51893;59.754;10.110;2024-03-08T01:57:21;103037.40;;;-1.20
65290;BMP180;51893;59.754;10.110;2024-03-08T01:59:49;103037.60;;;-1.30
65290;BMP180;51893;59.754;10.110;2024-03-08T02:02:18;103034.00;;;-1.30
65290;BMP180;51893;59.754;10.110;2024-03-08T02:04:49;103034.60;;;-1.20
65290;BMP180;51893;59.754;10.110;2024-03-08T02:07:21;103039.20;;;-1.26
65290;BMP180;51893;59.754;10.110;2024-03-08T02:09:50;103029.80;;;-1.30
65290;BMP180;51893;59.754;10.110;2024-03-08T02:12:20;103033.80;;;-1.30
65290;BMP180;51893;59.754;10.110;2024-03-08T02:14:49;103032.20;;;-1.30
65290;BMP180;51893;59.754;10.110;2024-03-08T02:17:17;103032.40;;;-1.30
65290;BMP180;51893;59.754;10.110;2024-03-08T02:19:45;103027.60;;;-1.32
65290;BMP180;51893;59.754;10.110;2024-03-08T02:22:14;103025.60;;;-1.38
65290;BMP180;51893;59.754;10.110;2024-03-08T02:24:43;103027.00;;;-1.40
65290;BMP180;51893;59.754;10.110;2024-03-08T02:27:11;103020.20;;;-1.40
65290;BMP180;51893;59.754;10.110;2024-03-08T02:29:42;103022.20;;;-1.50
65290;BMP180;51893;59.754;10.110;2024-03-08T02:32:11;103018.80;;;-1.50
65290;BMP180;51893;59.754;10.110;2024-03-08T02:34:38;103020.80;;;-1.50
65290;BMP180;51893;59.754;10.110;2024-03-08T02:37:07;103012.40;;;-1.50
65290;BMP180;51893;59.754;10.110;2024-03-08T02:39:36;103009.60;;;-1.40
65290;BMP180;51893;59.754;10.110;2024-03-08T02:42:04;103008.40;;;-1.40
65290;BMP180;51893;59.754;10.110;2024-03-08T02:44:33;103006.60;;;-1.36
65290;BMP180;51893;59.754;10.110;2024-03-08T02:47:01;103003.00;;;-1.30
65290;BMP180;51893;59.754;10.110;2024-03-08T02:49:29;103001.60;;;-1.30
65290;BMP180;51893;59.754;10.110;2024-03-08T02:51:57;103003.00;;;-1.30
65290;BMP180;51893;59.754;10.110;2024-03-08T02:54:26;102996.80;;;-1.30
65290;BMP180;51893;59.754;10.110;2024-03-08T02:56:54;102995.00;;;-1.20
65290;BMP180;51893;59.754;10.110;2024-03-08T02:59:22;102998.60;;;-1.20
65290;BMP180;51893;59.754;10.110;2024-03-08T03:01:51;102998.00;;;-1.10
65290;BMP180;51893;59.754;10.110;2024-03-08T03:04:19;102991.20;;;-1.10
65290;BMP180;51893;59.754;10.110;2024-03-08T03:06:47;102990.00;;;-1.00
65290;BMP180;51893;59.754;10.110;2024-03-08T03:09:15;102989.40;;;-1.00
65290;BMP180;51893;59.754;10.110;2024-03-08T03:11:45;102983.40;;;-1.10
65290;BMP180;51893;59.754;10.110;2024-03-08T03:14:13;102980.60;;;-1.10
65290;BMP180;51893;59.754;10.110;2024-03-08T03:16:41;102982.60;;;-1.04
65290;BMP180;51893;59.754;10.110;2024-03-08T03:19:11;102979.80;;;-1.04
65290;BMP180;51893;59.754;10.110;2024-03-08T03:21:39;102980.40;;;-1.10
65290;BMP180;51893;59.754;10.110;2024-03-08T03:24:07;102977.40;;;-1.20
65290;BMP180;51893;59.754;10.110;2024-03-08T03:26:39;102971.80;;;-1.30
65290;BMP180;51893;59.754;10.110;2024-03-08T03:29:09;102973.80;;;-1.30
65290;BMP180;51893;59.754;10.110;2024-03-08T03:31:39;102975.20;;;-1.30
65290;BMP180;51893;59.754;10.110;2024-03-08T03:34:08;102969.60;;;-1.34
65290;BMP180;51893;59.754;10.110;2024-03-08T03:36:36;102969.60;;;-1.40
65290;BMP180;51893;59.754;10.110;2024-03-08T03:39:06;102976.00;;;-1.40
65290;BMP180;51893;59.754;10.110;2024-03-08T03:41:44;102975.00;;;-1.46
65290;BMP180;51893;59.754;10.110;2024-03-08T03:44:14;102975.80;;;-1.50
65290;BMP180;51893;59.754;10.110;2024-03-08T03:46:42;102974.00;;;-1.50
65290;BMP180;51893;59.754;10.110;2024-03-08T03:49:13;102971.40;;;-1.54
65290;BMP180;51893;59.754;10.110;2024-03-08T03:51:42;102970.80;;;-1.62
65290;BMP180;51893;59.754;10.110;2024-03-08T03:54:10;102968.20;;;-1.70
65290;BMP180;51893;59.754;10.110;2024-03-08T03:56:39;102962.40;;;-1.70
65290;BMP180;51893;59.754;10.110;2024-03-08T03:59:10;102961.60;;;-1.70
65290;BMP180;51893;59.754;10.110;2024-03-08T04:01:42;102958.00;;;-1.70
65290;BMP180;51893;59.754;10.110;2024-03-08T04:04:11;102953.40;;;-1.70
65290;BMP180;51893;59.754;10.110;2024-03-08T04:06:40;102956.00;;;-1.60
65290;BMP180;51893;59.754;10.110;2024-03-08T04:09:08;102951.60;;;-1.52
65290;BMP180;51893;59.754;10.110;2024-03-08T04:11:36;102952.60;;;-1.50
65290;BMP180;51893;59.754;10.110;2024-03-08T04:14:04;102954.20;;;-1.50
65290;BMP180;51893;59.754;10.110;2024-03-08T04:16:32;102954.80;;;-1.56
65290;BMP180;51893;59.754;10.110;2024-03-08T04:19:00;102956.20;;;-1.60
65290;BMP180;51893;59.754;10.110;2024-03-08T04:21:32;102957.40;;;-1.70
65290;BMP180;51893;59.754;10.110;2024-03-08T04:24:00;102960.20;;;-1.70
65290;BMP180;51893;59.754;10.110;2024-03-08T04:26:29;102960.80;;;-1.68
65290;BMP180;51893;59.754;10.110;2024-03-08T04:28:57;102956.40;;;-1.66
65290;BMP180;51893;59.754;10.110;2024-03-08T04:31:25;102958.80;;;-1.70
65290;BMP180;51893;59.754;10.110;2024-03-08T04:33:54;102958.20;;;-1.72
65290;BMP180;51893;59.754;10.110;2024-03-08T04:36:22;102959.00;;;-1.80
65290;BMP180;51893;59.754;10.110;2024-03-08T04:38:52;102963.00;;;-1.70
65290;BMP180;51893;59.754;10.110;2024-03-08T04:41:20;102958.00;;;-1.70
65290;BMP180;51893;59.754;10.110;2024-03-08T04:43:49;102956.60;;;-1.70
65290;BMP180;51893;59.754;10.110;2024-03-08T04:46:17;102953.40;;;-1.70
65290;BMP180;51893;59.754;10.110;2024-03-08T04:48:45;102948.80;;;-1.70
65290;BMP180;51893;59.754;10.110;2024-03-08T04:51:14;102947.20;;;-1.70
65290;BMP180;51893;59.754;10.110;2024-03-08T04:53:43;102941.40;;;-1.70
65290;BMP180;51893;59.754;10.110;2024-03-08T04:56:11;102939.20;;;-1.70
65290;BMP180;51893;59.754;10.110;2024-03-08T04:58:39;102938.40;;;-1.70
65290;BMP180;51893;59.754;10.110;2024-03-08T05:01:07;102934.60;;;-1.76
65290;BMP180;51893;59.754;10.110;2024-03-08T05:03:38;102927.80;;;-1.80
65290;BMP180;51893;59.754;10.110;2024-03-08T05:06:07;102926.00;;;-1.80
65290;BMP180;51893;59.754;10.110;2024-03-08T05:08:35;102933.80;;;-1.80
65290;BMP180;51893;59.754;10.110;2024-03-08T05:11:04;102927.80;;;-1.80
65290;BMP180;51893;59.754;10.110;2024-03-08T05:13:35;102933.60;;;-1.78
65290;BMP180;51893;59.754;10.110;2024-03-08T05:16:03;102924.40;;;-1.70
65290;BMP180;51893;59.754;10.110;2024-03-08T05:18:31;102929.40;;;-1.70
65290;BMP180;51893;59.754;10.110;2024-03-08T05:21:00;102922.00;;;-1.72
65290;BMP180;51893;59.754;10.110;2024-03-08T05:23:32;102924.20;;;-1.80
65290;BMP180;51893;59.754;10.110;2024-03-08T05:26:00;102922.00;;;-1.80
65290;BMP180;51893;59.754;10.110;2024-03-08T05:28:28;102923.80;;;-1.86
65290;BMP180;51893;59.754;10.110;2024-03-08T05:30:56;102924.20;;;-1.90
65290;BMP180;51893;59.754;10.110;2024-03-08T05:33:24;102926.20;;;-2.00
65290;BMP180;51893;59.754;10.110;2024-03-08T05:35:52;102930.80;;;-2.10
65290;BMP180;51893;59.754;10.110;2024-03-08T05:38:21;102931.60;;;-2.10
65290;BMP180;51893;59.754;10.110;2024-03-08T05:40:50;102936.00;;;-2.18
65290;BMP180;51893;59.754;10.110;2024-03-08T05:43:19;102934.40;;;-2.20
65290;BMP180;51893;59.754;10.110;2024-03-08T05:45:47;102935.00;;;-2.20
65290;BMP180;51893;59.754;10.110;2024-03-08T05:48:15;102937.80;;;-2.30
65290;BMP180;51893;59.754;10.110;2024-03-08T05:50:46;102938.40;;;-2.30
65290;BMP180;51893;59.754;10.110;2024-03-08T05:53:14;102938.40;;;-2.30
65290;BMP180;51893;59.754;10.110;2024-03-08T05:55:42;102938.80;;;-2.30
65290;BMP180;51893;59.754;10.110;2024-03-08T05:58:10;102934.80;;;-2.30
65290;BMP180;51893;59.754;10.110;2024-03-08T06:00:39;102936.00;;;-2.30
65290;BMP180;51893;59.754;10.110;2024-03-08T06:03:07;102936.80;;;-2.28
65290;BMP180;51893;59.754;10.110;2024-03-08T06:05:35;102936.40;;;-2.28
65290;BMP180;51893;59.754;10.110;2024-03-08T06:08:04;102935.00;;;-2.30
65290;BMP180;51893;59.754;10.110;2024-03-08T06:10:35;102930.00;;;-2.40
65290;BMP180;51893;59.754;10.110;2024-03-08T06:13:03;102936.00;;;-2.30
65290;BMP180;51893;59.754;10.110;2024-03-08T06:15:32;102940.60;;;-2.30
65290;BMP180;51893;59.754;10.110;2024-03-08T06:18:00;102941.40;;;-2.30
65290;BMP180;51893;59.754;10.110;2024-03-08T06:20:28;102939.80;;;-2.30
65290;BMP180;51893;59.754;10.110;2024-03-08T06:22:56;102943.00;;;-2.30
65290;BMP180;51893;59.754;10.110;2024-03-08T06:25:24;102940.00;;;-2.30
65290;BMP180;51893;59.754;10.110;2024-03-08T06:27:53;102938.20;;;-2.30
65290;BMP180;51893;59.754;10.110;2024-03-08T06:30:21;102940.00;;;-2.30
65290;BMP180;51893;59.754;10.110;2024-03-08T06:32:50;102945.20;;;-2.30
65290;BMP180;51893;59.754;10.110;2024-03-08T06:35:19;102943.80;;;-2.20
65290;BMP180;51893;59.754;10.110;2024-03-08T06:37:48;102939.20;;;-2.20
65290;BMP180;51893;59.754;10.110;2024-03-08T06:40:16;102941.00;;;-2.10
65290;BMP180;51893;59.754;10.110;2024-03-08T06:42:44;102940.40;;;-2.02
65290;BMP180;51893;59.754;10.110;2024-03-08T06:45:13;102938.40;;;-2.00
65290;BMP180;51893;59.754;10.110;2024-03-08T06:47:43;102938.20;;;-1.94
65290;BMP180;51893;59.754;10.110;2024-03-08T06:50:11;102938.20;;;-1.90
65290;BMP180;51893;59.754;10.110;2024-03-08T06:52:41;102938.00;;;-1.90
65290;BMP180;51893;59.754;10.110;2024-03-08T06:55:14;102938.40;;;-1.90
65290;BMP180;51893;59.754;10.110;2024-03-08T06:57:42;102942.40;;;-1.90
65290;BMP180;51893;59.754;10.110;2024-03-08T07:00:11;102941.80;;;-1.90
65290;BMP180;51893;59.754;10.110;2024-03-08T07:02:41;102944.20;;;-1.90
65290;BMP180;51893;59.754;10.110;2024-03-08T07:05:09;102945.20;;;-1.80
65290;BMP180;51893;59.754;10.110;2024-03-08T07:07:39;102944.80;;;-1.80
65290;BMP180;51893;59.754;10.110;2024-03-08T07:10:09;102939.80;;;-1.80
65290;BMP180;51893;59.754;10.110;2024-03-08T07:12:39;102944.60;;;-1.80
65290;BMP180;51893;59.754;10.110;2024-03-08T07:15:07;102946.20;;;-1.70
65290;BMP180;51893;59.754;10.110;2024-03-08T07:17:36;102943.80;;;-1.60
65290;BMP180;51893;59.754;10.110;2024-03-08T07:20:06;102940.00;;;-1.54
65290;BMP180;51893;59.754;10.110;2024-03-08T07:22:39;102935.80;;;-1.48
65290;BMP180;51893;59.754;10.110;2024-03-08T07:25:08;102937.20;;;-1.40
65290;BMP180;51893;59.754;10.110;2024-03-08T07:27:52;102940.20;;;-1.32
65290;BMP180;51893;59.754;10.110;2024-03-08T07:30:24;102939.00;;;-1.30
65290;BMP180;51893;59.754;10.110;2024-03-08T07:33:13;102941.00;;;-1.40
65290;BMP180;51893;59.754;10.110;2024-03-08T07:35:42;102940.20;;;-1.38
65290;BMP180;51893;59.754;10.110;2024-03-08T07:38:12;102940.20;;;-1.30
65290;BMP180;51893;59.754;10.110;2024-03-08T07:40:41;102941.60;;;-1.30
65290;BMP180;51893;59.754;10.110;2024-03-08T07:43:13;102937.80;;;-1.30
65290;BMP180;51893;59.754;10.110;2024-03-08T07:45:41;102941.80;;;-1.22
65290;BMP180;51893;59.754;10.110;2024-03-08T07:48:09;102939.80;;;-1.10
65290;BMP180;51893;59.754;10.110;2024-03-08T07:50:40;102935.20;;;-1.00
65290;BMP180;51893;59.754;10.110;2024-03-08T07:53:09;102935.40;;;-0.90
65290;BMP180;51893;59.754;10.110;2024-03-08T07:55:37;102935.20;;;-0.80
65290;BMP180;51893;59.754;10.110;2024-03-08T07:58:08;102931.40;;;-0.84
65290;BMP180;51893;59.754;10.110;2024-03-08T08:00:39;102931.20;;;-0.90
65290;BMP180;51893;59.754;10.110;2024-03-08T08:03:07;102936.40;;;-0.90
65290;BMP180;51893;59.754;10.110;2024-03-08T08:05:36;102931.60;;;-0.90
65290;BMP180;51893;59.754;10.110;2024-03-08T08:08:08;102925.40;;;-0.90
65290;BMP180;51893;59.754;10.110;2024-03-08T08:10:39;102927.80;;;-0.90
65290;BMP180;51893;59.754;10.110;2024-03-08T08:13:08;102928.00;;;-0.80
65290;BMP180;51893;59.754;10.110;2024-03-08T08:15:36;102922.60;;;-0.72
65290;BMP180;51893;59.754;10.110;2024-03-08T08:18:04;102926.20;;;-0.60
65290;BMP180;51893;59.754;10.110;2024-03-08T08:20:34;102920.00;;;-0.60
65290;BMP180;51893;59.754;10.110;2024-03-08T08:23:02;102919.60;;;-0.50
65290;BMP180;51893;59.754;10.110;2024-03-08T08:25:31;102922.20;;;-0.50
65290;BMP180;51893;59.754;10.110;2024-03-08T08:28:03;102913.00;;;-0.50
65290;BMP180;51893;59.754;10.110;2024-03-08T08:30:32;102914.80;;;-0.46
65290;BMP180;51893;59.754;10.110;2024-03-08T08:33:01;102910.20;;;-0.40
65290;BMP180;51893;59.754;10.110;2024-03-08T08:35:29;102909.40;;;-0.40
65290;BMP180;51893;59.754;10.110;2024-03-08T08:37:57;102910.00;;;-0.38
65290;BMP180;51893;59.754;10.110;2024-03-08T08:40:28;102907.00;;;-0.30
65290;BMP180;51893;59.754;10.110;2024-03-08T08:42:58;102909.00;;;-0.22
65290;BMP180;51893;59.754;10.110;2024-03-08T08:45:26;102907.40;;;-0.20
65290;BMP180;51893;59.754;10.110;2024-03-08T08:47:55;102906.80;;;-0.16
65290;BMP180;51893;59.754;10.110;2024-03-08T08:50:23;102904.00;;;-0.10
65290;BMP180;51893;59.754;10.110;2024-03-08T08:52:53;102905.40;;;0.00
65290;BMP180;51893;59.754;10.110;2024-03-08T08:55:22;102905.80;;;0.02
65290;BMP180;51893;59.754;10.110;2024-03-08T08:57:54;102905.40;;;0.12
65290;BMP180;51893;59.754;10.110;2024-03-08T09:00:24;102905.60;;;0.20
65290;BMP180;51893;59.754;10.110;2024-03-08T09:02:55;102901.20;;;0.40
65290;BMP180;51893;59.754;10.110;2024-03-08T09:05:26;102903.20;;;0.40
65290;BMP180;51893;59.754;10.110;2024-03-08T09:07:55;102903.60;;;0.50
65290;BMP180;51893;59.754;10.110;2024-03-08T09:10:23;102901.40;;;0.60
65290;BMP180;51893;59.754;10.110;2024-03-08T09:12:57;102895.60;;;0.70
65290;BMP180;51893;59.754;10.110;2024-03-08T09:15:27;102896.40;;;0.80
65290;BMP180;51893;59.754;10.110;2024-03-08T09:17:57;102895.40;;;0.80
65290;BMP180;51893;59.754;10.110;2024-03-08T09:20:27;102887.60;;;0.90
65290;BMP180;51893;59.754;10.110;2024-03-08T09:22:56;102892.00;;;1.00
65290;BMP180;51893;59.754;10.110;2024-03-08T09:25:24;102883.20;;;1.00
65290;BMP180;51893;59.754;10.110;2024-03-08T09:27:54;102875.80;;;1.10
65290;BMP180;51893;59.754;10.110;2024-03-08T09:30:22;102879.00;;;1.20
65290;BMP180;51893;59.754;10.110;2024-03-08T09:32:51;102874.80;;;1.30
65290;BMP180;51893;59.754;10.110;2024-03-08T09:35:20;102871.20;;;1.40
65290;BMP180;51893;59.754;10.110;2024-03-08T09:37:48;102868.60;;;1.40
65290;BMP180;51893;59.754;10.110;2024-03-08T09:40:19;102864.60;;;1.50
65290;BMP180;51893;59.754;10.110;2024-03-08T09:42:49;102871.40;;;1.56
65290;BMP180;51893;59.754;10.110;2024-03-08T09:45:17;102871.60;;;1.60
65290;BMP180;51893;59.754;10.110;2024-03-08T09:47:46;102867.80;;;1.70
65290;BMP180;51893;59.754;10.110;2024-03-08T09:50:15;102866.80;;;1.72
65290;BMP180;51893;59.754;10.110;2024-03-08T09:52:49;102868.40;;;1.80
65290;BMP180;51893;59.754;10.110;2024-03-08T09:55:19;102855.60;;;1.92
65290;BMP180;51893;59.754;10.110;2024-03-08T09:57:53;102853.20;;;2.00
65290;BMP180;51893;59.754;10.110;2024-03-08T10:01:00;102856.80;;;2.02
65290;BMP180;51893;59.754;10.110;2024-03-08T10:03:32;102856.60;;;2.10
65290;BMP180;51893;59.754;10.110;2024-03-08T10:06:02;102852.60;;;2.18
65290;BMP180;51893;59.754;10.110;2024-03-08T10:08:30;102850.80;;;2.20
65290;BMP180;51893;59.754;10.110;2024-03-08T10:10:58;102849.40;;;2.30
65290;BMP180;51893;59.754;10.110;2024-03-08T10:13:27;102845.60;;;2.30
65290;BMP180;51893;59.754;10.110;2024-03-08T10:15:55;102842.40;;;2.30
65290;BMP180;51893;59.754;10.110;2024-03-08T10:18:23;102843.40;;;2.38
65290;BMP180;51893;59.754;10.110;2024-03-08T10:21:09;102835.00;;;2.48
65290;BMP180;51893;59.754;10.110;2024-03-08T10:23:39;102834.20;;;2.60
65290;BMP180;51893;59.754;10.110;2024-03-08T10:26:17;102834.60;;;2.70
65290;BMP180;51893;59.754;10.110;2024-03-08T10:28:50;102826.20;;;2.70
65290;BMP180;51893;59.754;10.110;2024-03-08T10:31:20;102826.80;;;2.70
65290;BMP180;51893;59.754;10.110;2024-03-08T10:33:48;102823.00;;;2.90
65290;BMP180;51893;59.754;10.110;2024-03-08T10:36:17;102816.40;;;2.96
65290;BMP180;51893;59.754;10.110;2024-03-08T10:38:52;102815.40;;;3.00
65290;BMP180;51893;59.754;10.110;2024-03-08T10:41:24;102815.00;;;3.08
65290;BMP180;51893;59.754;10.110;2024-03-08T10:49:40;102805.60;;;3.40
65290;BMP180;51893;59.754;10.110;2024-03-08T10:52:14;102803.00;;;3.50
65290;BMP180;51893;59.754;10.110;2024-03-08T10:54:45;102801.00;;;3.60
65290;BMP180;51893;59.754;10.110;2024-03-08T10:57:17;102802.60;;;3.70
65290;BMP180;51893;59.754;10.110;2024-03-08T10:59:50;102801.40;;;3.70
65290;BMP180;51893;59.754;10.110;2024-03-08T11:02:22;102793.20;;;3.74
65290;BMP180;51893;59.754;10.110;2024-03-08T11:04:51;102789.80;;;3.90
65290;BMP180;51893;59.754;10.110;2024-03-08T11:07:21;102788.80;;;3.90
65290;BMP180;51893;59.754;10.110;2024-03-08T11:09:49;102793.60;;;4.00
65290;BMP180;51893;59.754;10.110;2024-03-08T11:12:28;102789.40;;;4.10
65290;BMP180;51893;59.754;10.110;2024-03-08T11:15:12;102790.60;;;4.20
65290;BMP180;51893;59.754;10.110;2024-03-08T11:17:48;102784.20;;;4.30
65290;BMP180;51893;59.754;10.110;2024-03-08T11:20:20;102784.80;;;4.40
65290;BMP180;51893;59.754;10.110;2024-03-08T11:22:54;102781.60;;;4.50
65290;BMP180;51893;59.754;10.110;2024-03-08T11:25:39;102776.60;;;4.60
65290;BMP180;51893;59.754;10.110;2024-03-08T11:33:29;102781.60;;;4.90
65290;BMP180;51893;59.754;10.110;2024-03-08T11:36:10;102781.60;;;4.90
65290;BMP180;51893;59.754;10.110;2024-03-08T11:38:43;102779.00;;;4.90
65290;BMP180;51893;59.754;10.110;2024-03-08T11:41:12;102775.20;;;4.90
65290;BMP180;51893;59.754;10.110;2024-03-08T11:43:47;102777.00;;;5.00
65290;BMP180;51893;59.754;10.110;2024-03-08T11:46:17;102770.60;;;5.10
65290;BMP180;51893;59.754;10.110;2024-03-08T11:48:47;102772.80;;;5.20
65290;BMP180;51893;59.754;10.110;2024-03-08T11:51:16;102771.00;;;5.36
65290;BMP180;51893;59.754;10.110;2024-03-08T11:53:49;102768.80;;;5.50
65290;BMP180;51893;59.754;10.110;2024-03-08T11:56:18;102765.00;;;5.70
65290;BMP180;51893;59.754;10.110;2024-03-08T11:58:56;102768.20;;;5.90
65290;BMP180;51893;59.754;10.110;2024-03-08T12:01:28;102763.40;;;5.80
65290;BMP180;51893;59.754;10.110;2024-03-08T12:03:57;102763.40;;;5.80
65290;BMP180;51893;59.754;10.110;2024-03-08T12:06:38;102758.40;;;5.94
65290;BMP180;51893;59.754;10.110;2024-03-08T12:09:09;102761.00;;;6.06
65290;BMP180;51893;59.754;10.110;2024-03-08T12:11:39;102761.60;;;6.18
65290;BMP180;51893;59.754;10.110;2024-03-08T12:14:07;102756.80;;;6.20
65290;BMP180;51893;59.754;10.110;2024-03-08T12:16:37;102750.20;;;6.30
65290;BMP180;51893;59.754;10.110;2024-03-08T12:19:06;102745.00;;;6.40
65290;BMP180;51893;59.754;10.110;2024-03-08T12:21:35;102744.60;;;6.40
65290;BMP180;51893;59.754;10.110;2024-03-08T12:24:07;102740.80;;;6.34
65290;BMP180;51893;59.754;10.110;2024-03-08T12:26:38;102739.40;;;6.30
65290;BMP180;51893;59.754;10.110;2024-03-08T12:29:27;102744.60;;;6.30
65290;BMP180;51893;59.754;10.110;2024-03-08T12:31:59;102740.80;;;6.30
65290;BMP180;51893;59.754;10.110;2024-03-08T12:34:29;102739.00;;;6.30
65290;BMP180;51893;59.754;10.110;2024-03-08T12:37:00;102732.60;;;6.40
65290;BMP180;51893;59.754;10.110;2024-03-08T12:39:30;102727.40;;;6.52
65290;BMP180;51893;59.754;10.110;2024-03-08T12:41:57;102726.20;;;6.80
65290;BMP180;51893;59.754;10.110;2024-03-08T12:44:27;102721.00;;;6.80
65290;BMP180;51893;59.754;10.110;2024-03-08T12:46:57;102720.60;;;7.00
65290;BMP180;51893;59.754;10.110;2024-03-08T12:49:27;102722.00;;;7.00
65290;BMP180;51893;59.754;10.110;2024-03-08T12:51:55;102721.40;;;6.90
65290;BMP180;51893;59.754;10.110;2024-03-08T12:54:23;102721.00;;;7.00
65290;BMP180;51893;59.754;10.110;2024-03-08T12:56:52;102729.40;;;7.00
65290;BMP180;51893;59.754;10.110;2024-03-08T12:59:22;102725.00;;;7.00
65290;BMP180;51893;59.754;10.110;2024-03-08T13:01:52;102722.80;;;7.00
65290;BMP180;51893;59.754;10.110;2024-03-08T13:04:22;102720.20;;;7.10
65290;BMP180;51893;59.754;10.110;2024-03-08T13:06:50;102719.60;;;7.10
65290;BMP180;51893;59.754;10.110;2024-03-08T13:09:22;102722.80;;;7.10
65290;BMP180;51893;59.754;10.110;2024-03-08T13:11:50;102718.20;;;7.10
65290;BMP180;51893;59.754;10.110;2024-03-08T13:14:19;102722.00;;;7.20
65290;BMP180;51893;59.754;10.110;2024-03-08T13:16:47;102720.60;;;7.20
65290;BMP180;51893;59.754;10.110;2024-03-08T13:19:17;102720.40;;;7.30
65290;BMP180;51893;59.754;10.110;2024-03-08T13:21:45;102723.00;;;7.30
65290;BMP180;51893;59.754;10.110;2024-03-08T13:24:17;102718.80;;;7.18
65290;BMP180;51893;59.754;10.110;2024-03-08T13:26:49;102715.60;;;7.04
65290;BMP180;51893;59.754;10.110;2024-03-08T13:29:18;102714.80;;;7.00
65290;BMP180;51893;59.754;10.110;2024-03-08T13:31:46;102717.40;;;7.00
65290;BMP180;51893;59.754;10.110;2024-03-08T13:34:20;102713.80;;;7.00
65290;BMP180;51893;59.754;10.110;2024-03-08T13:36:57;102712.20;;;7.00
65290;BMP180;51893;59.754;10.110;2024-03-08T13:39:29;102711.60;;;6.90
65290;BMP180;51893;59.754;10.110;2024-03-08T13:41:59;102707.80;;;6.90
65290;BMP180;51893;59.754;10.110;2024-03-08T13:44:27;102706.60;;;6.90
65290;BMP180;51893;59.754;10.110;2024-03-08T13:46:55;102700.40;;;6.90
65290;BMP180;51893;59.754;10.110;2024-03-08T13:49:28;102695.20;;;6.90
65290;BMP180;51893;59.754;10.110;2024-03-08T13:51:57;102696.80;;;6.88
65290;BMP180;51893;59.754;10.110;2024-03-08T13:54:26;102696.20;;;6.70
65290;BMP180;51893;59.754;10.110;2024-03-08T13:56:55;102691.60;;;6.70
65290;BMP180;51893;59.754;10.110;2024-03-08T13:59:23;102685.20;;;6.70
65290;BMP180;51893;59.754;10.110;2024-03-08T14:01:52;102680.20;;;6.60
65290;BMP180;51893;59.754;10.110;2024-03-08T14:04:20;102676.60;;;6.60
65290;BMP180;51893;59.754;10.110;2024-03-08T14:06:48;102676.00;;;6.60
65290;BMP180;51893;59.754;10.110;2024-03-08T14:09:17;102668.20;;;6.60
65290;BMP180;51893;59.754;10.110;2024-03-08T14:11:45;102668.40;;;6.60
65290;BMP180;51893;59.754;10.110;2024-03-08T14:14:13;102671.00;;;6.60